sensor_id;sensor_type;location;lat;lon;timestamp;P1;durP1;ratioP1;P2;durP2;ratioP2
12407;SDS011;6268;48.188;17.134;2023-05-18T00:00:47;5.97;;;5.35;;
12407;SDS011;6268;48.188;17.134;2023-05-18T00:04:08;9.77;;;6.03;;
12407;SDS011;6268;48.188;17.134;2023-05-18T00:07:30;8.07;;;5.68;;
12407;SDS011;6268;48.188;17.134;2023-05-18T00:10:51;7.78;;;5.50;;
12407;SDS011;6268;48.188;17.134;2023-05-18T00:14:13;5.28;;;4.75;;
12407;SDS011;6268;48.188;17.134;2023-05-18T00:17:36;6.30;;;4.95;;
12407;SDS011;6268;48.188;17.134;2023-05-18T00:20:59;7.28;;;4.93;;
12407;SDS011;6268;48.188;17.134;2023-05-18T00:24:21;7.90;;;5.13;;
12407;SDS011;6268;48.188;17.134;2023-05-18T00:27:43;7.38;;;6.13;;
12407;SDS011;6268;48.188;17.134;2023-05-18T00:31:04;7.60;;;4.85;;
12407;SDS011;6268;48.188;17.134;2023-05-18T00:34:27;7.00;;;5.30;;
12407;SDS011;6268;48.188;17.134;2023-05-18T00:37:48;5.90;;;5.40;;
12407;SDS011;6268;48.188;17.134;2023-05-18T00:41:10;7.82;;;5.80;;
12407;SDS011;6268;48.188;17.134;2023-05-18T00:44:32;7.32;;;4.95;;
12407;SDS011;6268;48.188;17.134;2023-05-18T00:47:53;6.95;;;5.07;;
12407;SDS011;6268;48.188;17.134;2023-05-18T00:51:17;6.57;;;4.68;;
12407;SDS011;6268;48.188;17.134;2023-05-18T00:54:40;6.43;;;4.93;;
12407;SDS011;6268;48.188;17.134;2023-05-18T00:58:03;6.90;;;5.13;;
12407;SDS011;6268;48.188;17.134;2023-05-18T01:01:26;8.57;;;5.13;;
12407;SDS011;6268;48.188;17.134;2023-05-18T01:04:49;10.25;;;5.15;;
12407;SDS011;6268;48.188;17.134;2023-05-18T01:08:12;8.13;;;5.20;;
12407;SDS011;6268;48.188;17.134;2023-05-18T01:11:40;7.00;;;4.75;;
12407;SDS011;6268;48.188;17.134;2023-05-18T01:15:13;8.63;;;5.40;;
12407;SDS011;6268;48.188;17.134;2023-05-18T01:18:40;6.95;;;4.88;;
12407;SDS011;6268;48.188;17.134;2023-05-18T01:22:31;6.28;;;4.90;;
12407;SDS011;6268;48.188;17.134;2023-05-18T01:26:23;8.73;;;5.38;;
12407;SDS011;6268;48.188;17.134;2023-05-18T01:29:50;7.72;;;5.60;;
12407;SDS011;6268;48.188;17.134;2023-05-18T01:33:14;7.53;;;5.20;;
12407;SDS011;6268;48.188;17.134;2023-05-18T01:36:36;7.88;;;4.85;;
12407;SDS011;6268;48.188;17.134;2023-05-18T01:39:57;5.72;;;5.13;;
12407;SDS011;6268;48.188;17.134;2023-05-18T01:43:26;5.18;;;4.45;;
12407;SDS011;6268;48.188;17.134;2023-05-18T01:46:56;6.35;;;4.93;;
12407;SDS011;6268;48.188;17.134;2023-05-18T01:50:26;8.88;;;5.43;;
12407;SDS011;6268;48.188;17.134;2023-05-18T01:53:58;6.30;;;5.22;;
12407;SDS011;6268;48.188;17.134;2023-05-18T01:57:24;10.05;;;5.05;;
12407;SDS011;6268;48.188;17.134;2023-05-18T02:00:50;9.43;;;5.70;;
12407;SDS011;6268;48.188;17.134;2023-05-18T02:04:12;8.07;;;5.57;;
12407;SDS011;6268;48.188;17.134;2023-05-18T02:07:38;5.90;;;4.85;;
12407;SDS011;6268;48.188;17.134;2023-05-18T02:10:59;6.75;;;5.35;;
12407;SDS011;6268;48.188;17.134;2023-05-18T02:14:21;7.40;;;4.82;;
12407;SDS011;6268;48.188;17.134;2023-05-18T02:17:43;8.95;;;5.85;;
12407;SDS011;6268;48.188;17.134;2023-05-18T02:21:05;6.75;;;4.65;;
12407;SDS011;6268;48.188;17.134;2023-05-18T02:24:26;7.15;;;4.95;;
12407;SDS011;6268;48.188;17.134;2023-05-18T02:27:48;4.90;;;4.40;;
12407;SDS011;6268;48.188;17.134;2023-05-18T02:31:09;9.90;;;5.18;;
12407;SDS011;6268;48.188;17.134;2023-05-18T02:34:33;8.45;;;5.10;;
12407;SDS011;6268;48.188;17.134;2023-05-18T02:37:54;8.32;;;4.53;;
12407;SDS011;6268;48.188;17.134;2023-05-18T02:41:16;9.77;;;4.78;;
12407;SDS011;6268;48.188;17.134;2023-05-18T02:44:38;7.18;;;5.07;;
12407;SDS011;6268;48.188;17.134;2023-05-18T02:47:59;5.72;;;4.97;;
12407;SDS011;6268;48.188;17.134;2023-05-18T02:51:22;7.50;;;5.50;;
12407;SDS011;6268;48.188;17.134;2023-05-18T02:54:44;7.10;;;4.50;;
12407;SDS011;6268;48.188;17.134;2023-05-18T02:58:06;9.68;;;4.78;;
12407;SDS011;6268;48.188;17.134;2023-05-18T03:01:28;6.68;;;4.75;;
12407;SDS011;6268;48.188;17.134;2023-05-18T03:04:49;6.00;;;4.80;;
12407;SDS011;6268;48.188;17.134;2023-05-18T03:08:12;5.82;;;4.95;;
12407;SDS011;6268;48.188;17.134;2023-05-18T03:11:34;7.70;;;4.50;;
12407;SDS011;6268;48.188;17.134;2023-05-18T03:14:55;7.13;;;4.07;;
12407;SDS011;6268;48.188;17.134;2023-05-18T03:18:17;7.18;;;4.88;;
12407;SDS011;6268;48.188;17.134;2023-05-18T03:21:41;8.88;;;4.72;;
12407;SDS011;6268;48.188;17.134;2023-05-18T03:25:04;5.72;;;4.30;;
12407;SDS011;6268;48.188;17.134;2023-05-18T03:28:29;7.45;;;4.90;;
12407;SDS011;6268;48.188;17.134;2023-05-18T03:31:51;6.97;;;4.38;;
12407;SDS011;6268;48.188;17.134;2023-05-18T03:35:13;9.52;;;4.57;;
12407;SDS011;6268;48.188;17.134;2023-05-18T03:38:35;7.97;;;4.85;;
12407;SDS011;6268;48.188;17.134;2023-05-18T03:41:57;21.20;;;16.05;;
12407;SDS011;6268;48.188;17.134;2023-05-18T03:45:19;20.38;;;15.95;;
12407;SDS011;6268;48.188;17.134;2023-05-18T03:48:41;16.08;;;11.23;;
12407;SDS011;6268;48.188;17.134;2023-05-18T03:52:02;8.48;;;5.82;;
12407;SDS011;6268;48.188;17.134;2023-05-18T03:55:24;8.60;;;5.38;;
12407;SDS011;6268;48.188;17.134;2023-05-18T03:58:47;8.75;;;4.80;;
12407;SDS011;6268;48.188;17.134;2023-05-18T04:02:09;11.55;;;4.63;;
12407;SDS011;6268;48.188;17.134;2023-05-18T04:05:31;9.02;;;5.20;;
12407;SDS011;6268;48.188;17.134;2023-05-18T04:08:52;10.65;;;5.50;;
12407;SDS011;6268;48.188;17.134;2023-05-18T04:12:14;7.05;;;4.60;;
12407;SDS011;6268;48.188;17.134;2023-05-18T04:15:37;7.85;;;4.60;;
12407;SDS011;6268;48.188;17.134;2023-05-18T04:18:58;6.18;;;4.63;;
12407;SDS011;6268;48.188;17.134;2023-05-18T04:22:20;9.15;;;5.30;;
12407;SDS011;6268;48.188;17.134;2023-05-18T04:25:42;8.45;;;4.93;;
12407;SDS011;6268;48.188;17.134;2023-05-18T04:29:04;13.00;;;8.70;;
12407;SDS011;6268;48.188;17.134;2023-05-18T04:32:26;7.55;;;4.43;;
12407;SDS011;6268;48.188;17.134;2023-05-18T04:35:49;8.20;;;5.22;;
12407;SDS011;6268;48.188;17.134;2023-05-18T04:39:11;8.73;;;4.97;;
12407;SDS011;6268;48.188;17.134;2023-05-18T04:42:33;9.00;;;4.65;;
12407;SDS011;6268;48.188;17.134;2023-05-18T04:45:55;4.57;;;3.88;;
12407;SDS011;6268;48.188;17.134;2023-05-18T04:49:19;10.43;;;5.60;;
12407;SDS011;6268;48.188;17.134;2023-05-18T04:52:42;6.32;;;5.50;;
12407;SDS011;6268;48.188;17.134;2023-05-18T04:56:05;9.68;;;5.10;;
12407;SDS011;6268;48.188;17.134;2023-05-18T04:59:27;13.27;;;6.28;;
12407;SDS011;6268;48.188;17.134;2023-05-18T05:02:49;9.60;;;5.47;;
12407;SDS011;6268;48.188;17.134;2023-05-18T05:06:13;10.50;;;5.30;;
12407;SDS011;6268;48.188;17.134;2023-05-18T05:09:34;8.23;;;4.75;;
12407;SDS011;6268;48.188;17.134;2023-05-18T05:12:56;6.57;;;3.88;;
12407;SDS011;6268;48.188;17.134;2023-05-18T05:16:17;10.88;;;5.18;;
12407;SDS011;6268;48.188;17.134;2023-05-18T05:19:39;7.35;;;4.65;;
12407;SDS011;6268;48.188;17.134;2023-05-18T05:23:04;10.63;;;4.88;;
12407;SDS011;6268;48.188;17.134;2023-05-18T05:26:27;9.73;;;5.25;;
12407;SDS011;6268;48.188;17.134;2023-05-18T05:29:49;8.88;;;4.90;;
12407;SDS011;6268;48.188;17.134;2023-05-18T05:33:11;10.10;;;5.00;;
12407;SDS011;6268;48.188;17.134;2023-05-18T05:36:32;10.30;;;5.43;;
12407;SDS011;6268;48.188;17.134;2023-05-18T05:39:55;7.75;;;5.00;;
12407;SDS011;6268;48.188;17.134;2023-05-18T05:43:17;7.88;;;5.20;;
12407;SDS011;6268;48.188;17.134;2023-05-18T05:46:38;10.40;;;5.30;;
12407;SDS011;6268;48.188;17.134;2023-05-18T05:50:00;8.15;;;5.15;;
12407;SDS011;6268;48.188;17.134;2023-05-18T05:53:21;11.15;;;5.95;;
12407;SDS011;6268;48.188;17.134;2023-05-18T05:56:44;10.25;;;6.03;;
12407;SDS011;6268;48.188;17.134;2023-05-18T06:00:08;10.35;;;6.20;;
12407;SDS011;6268;48.188;17.134;2023-05-18T06:03:31;11.95;;;6.47;;
12407;SDS011;6268;48.188;17.134;2023-05-18T06:06:52;10.85;;;5.72;;
12407;SDS011;6268;48.188;17.134;2023-05-18T06:10:14;10.77;;;6.47;;
12407;SDS011;6268;48.188;17.134;2023-05-18T06:13:38;10.43;;;6.45;;
12407;SDS011;6268;48.188;17.134;2023-05-18T06:16:59;9.80;;;5.90;;
12407;SDS011;6268;48.188;17.134;2023-05-18T06:20:21;10.05;;;6.32;;
12407;SDS011;6268;48.188;17.134;2023-05-18T06:23:42;14.02;;;9.40;;
12407;SDS011;6268;48.188;17.134;2023-05-18T06:27:04;12.35;;;9.43;;
12407;SDS011;6268;48.188;17.134;2023-05-18T06:30:27;15.27;;;9.35;;
12407;SDS011;6268;48.188;17.134;2023-05-18T06:33:54;10.75;;;8.07;;
12407;SDS011;6268;48.188;17.134;2023-05-18T06:37:20;12.98;;;8.73;;
12407;SDS011;6268;48.188;17.134;2023-05-18T06:40:41;12.82;;;8.50;;
12407;SDS011;6268;48.188;17.134;2023-05-18T06:44:03;16.20;;;8.30;;
12407;SDS011;6268;48.188;17.134;2023-05-18T06:47:27;9.95;;;8.38;;
12407;SDS011;6268;48.188;17.134;2023-05-18T06:50:49;11.52;;;8.80;;
12407;SDS011;6268;48.188;17.134;2023-05-18T06:54:11;16.00;;;9.60;;
12407;SDS011;6268;48.188;17.134;2023-05-18T06:57:33;15.30;;;8.80;;
12407;SDS011;6268;48.188;17.134;2023-05-18T07:00:54;14.32;;;8.80;;
12407;SDS011;6268;48.188;17.134;2023-05-18T07:04:17;17.38;;;10.10;;
12407;SDS011;6268;48.188;17.134;2023-05-18T07:07:39;16.23;;;10.48;;
12407;SDS011;6268;48.188;17.134;2023-05-18T07:11:02;14.48;;;10.52;;
12407;SDS011;6268;48.188;17.134;2023-05-18T07:14:24;15.85;;;11.13;;
12407;SDS011;6268;48.188;17.134;2023-05-18T07:17:45;16.85;;;11.20;;
12407;SDS011;6268;48.188;17.134;2023-05-18T07:21:09;19.92;;;11.63;;
12407;SDS011;6268;48.188;17.134;2023-05-18T07:24:30;16.52;;;12.40;;
12407;SDS011;6268;48.188;17.134;2023-05-18T07:27:52;18.92;;;12.88;;
12407;SDS011;6268;48.188;17.134;2023-05-18T07:31:14;23.27;;;16.67;;
12407;SDS011;6268;48.188;17.134;2023-05-18T07:34:35;17.20;;;13.55;;
12407;SDS011;6268;48.188;17.134;2023-05-18T07:37:58;16.15;;;12.70;;
12407;SDS011;6268;48.188;17.134;2023-05-18T07:41:22;17.38;;;13.52;;
12407;SDS011;6268;48.188;17.134;2023-05-18T07:44:43;18.00;;;13.50;;
12407;SDS011;6268;48.188;17.134;2023-05-18T07:48:04;14.65;;;13.23;;
12407;SDS011;6268;48.188;17.134;2023-05-18T07:51:27;20.38;;;13.30;;
12407;SDS011;6268;48.188;17.134;2023-05-18T07:54:49;14.70;;;13.20;;
12407;SDS011;6268;48.188;17.134;2023-05-18T07:58:12;14.93;;;13.20;;
12407;SDS011;6268;48.188;17.134;2023-05-18T08:01:33;18.23;;;13.90;;
12407;SDS011;6268;48.188;17.134;2023-05-18T08:04:59;15.93;;;13.45;;
12407;SDS011;6268;48.188;17.134;2023-05-18T08:08:20;17.27;;;13.80;;
12407;SDS011;6268;48.188;17.134;2023-05-18T08:11:43;18.42;;;14.82;;
12407;SDS011;6268;48.188;17.134;2023-05-18T08:15:05;16.65;;;14.63;;
12407;SDS011;6268;48.188;17.134;2023-05-18T08:18:38;18.83;;;14.75;;
12407;SDS011;6268;48.188;17.134;2023-05-18T08:21:59;18.48;;;15.23;;
12407;SDS011;6268;48.188;17.134;2023-05-18T08:25:20;17.20;;;14.15;;
12407;SDS011;6268;48.188;17.134;2023-05-18T08:28:43;22.80;;;19.63;;
12407;SDS011;6268;48.188;17.134;2023-05-18T08:32:05;17.02;;;15.25;;
12407;SDS011;6268;48.188;17.134;2023-05-18T08:35:27;25.98;;;20.70;;
12407;SDS011;6268;48.188;17.134;2023-05-18T08:38:48;17.15;;;14.75;;
12407;SDS011;6268;48.188;17.134;2023-05-18T08:42:14;17.27;;;14.00;;
12407;SDS011;6268;48.188;17.134;2023-05-18T08:45:47;17.70;;;15.10;;
12407;SDS011;6268;48.188;17.134;2023-05-18T08:49:14;16.05;;;14.35;;
12407;SDS011;6268;48.188;17.134;2023-05-18T08:52:41;19.25;;;15.63;;
12407;SDS011;6268;48.188;17.134;2023-05-18T08:56:07;21.13;;;16.77;;
12407;SDS011;6268;48.188;17.134;2023-05-18T08:59:31;18.55;;;14.43;;
12407;SDS011;6268;48.188;17.134;2023-05-18T09:02:57;16.95;;;14.13;;
12407;SDS011;6268;48.188;17.134;2023-05-18T09:06:19;18.35;;;14.57;;
12407;SDS011;6268;48.188;17.134;2023-05-18T09:09:41;15.82;;;13.80;;
12407;SDS011;6268;48.188;17.134;2023-05-18T09:13:05;16.08;;;14.13;;
12407;SDS011;6268;48.188;17.134;2023-05-18T09:16:29;14.05;;;12.73;;
12407;SDS011;6268;48.188;17.134;2023-05-18T09:19:54;19.35;;;14.38;;
12407;SDS011;6268;48.188;17.134;2023-05-18T09:23:15;25.52;;;19.35;;
12407;SDS011;6268;48.188;17.134;2023-05-18T09:26:37;19.40;;;16.40;;
12407;SDS011;6268;48.188;17.134;2023-05-18T09:29:58;17.88;;;13.50;;
12407;SDS011;6268;48.188;17.134;2023-05-18T09:33:20;15.82;;;13.07;;
12407;SDS011;6268;48.188;17.134;2023-05-18T09:36:43;13.48;;;12.10;;
12407;SDS011;6268;48.188;17.134;2023-05-18T09:40:08;13.27;;;12.02;;
12407;SDS011;6268;48.188;17.134;2023-05-18T09:43:30;13.68;;;12.27;;
12407;SDS011;6268;48.188;17.134;2023-05-18T09:46:57;12.82;;;11.60;;
12407;SDS011;6268;48.188;17.134;2023-05-18T09:50:18;13.43;;;12.05;;
12407;SDS011;6268;48.188;17.134;2023-05-18T09:53:44;13.13;;;11.82;;
12407;SDS011;6268;48.188;17.134;2023-05-18T09:57:08;12.25;;;10.85;;
12407;SDS011;6268;48.188;17.134;2023-05-18T10:00:30;11.93;;;10.73;;
12407;SDS011;6268;48.188;17.134;2023-05-18T10:03:52;15.18;;;12.35;;
12407;SDS011;6268;48.188;17.134;2023-05-18T10:07:23;13.55;;;12.15;;
12407;SDS011;6268;48.188;17.134;2023-05-18T10:10:47;11.65;;;10.38;;
12407;SDS011;6268;48.188;17.134;2023-05-18T10:14:09;11.68;;;10.57;;
12407;SDS011;6268;48.188;17.134;2023-05-18T10:17:31;11.90;;;10.27;;
12407;SDS011;6268;48.188;17.134;2023-05-18T10:20:55;10.38;;;9.30;;
12407;SDS011;6268;48.188;17.134;2023-05-18T10:24:18;12.10;;;9.80;;
12407;SDS011;6268;48.188;17.134;2023-05-18T10:27:46;11.70;;;9.98;;
12407;SDS011;6268;48.188;17.134;2023-05-18T10:31:09;10.93;;;9.82;;
12407;SDS011;6268;48.188;17.134;2023-05-18T10:34:33;10.05;;;8.88;;
12407;SDS011;6268;48.188;17.134;2023-05-18T10:37:56;9.73;;;8.82;;
12407;SDS011;6268;48.188;17.134;2023-05-18T10:41:19;9.93;;;9.00;;
12407;SDS011;6268;48.188;17.134;2023-05-18T10:44:44;8.95;;;8.02;;
12407;SDS011;6268;48.188;17.134;2023-05-18T10:48:08;9.20;;;8.43;;
12407;SDS011;6268;48.188;17.134;2023-05-18T10:51:31;9.93;;;9.02;;
12407;SDS011;6268;48.188;17.134;2023-05-18T10:54:57;10.77;;;8.95;;
12407;SDS011;6268;48.188;17.134;2023-05-18T10:58:20;9.45;;;8.45;;
12407;SDS011;6268;48.188;17.134;2023-05-18T11:01:47;8.80;;;8.00;;
12407;SDS011;6268;48.188;17.134;2023-05-18T11:05:11;12.15;;;9.50;;
12407;SDS011;6268;48.188;17.134;2023-05-18T11:08:40;9.73;;;8.73;;
12407;SDS011;6268;48.188;17.134;2023-05-18T11:12:03;8.90;;;8.10;;
12407;SDS011;6268;48.188;17.134;2023-05-18T11:27:35;9.65;;;8.65;;
12407;SDS011;6268;48.188;17.134;2023-05-18T11:30:59;10.65;;;9.10;;
12407;SDS011;6268;48.188;17.134;2023-05-18T11:38:18;10.65;;;8.57;;
12407;SDS011;6268;48.188;17.134;2023-05-18T11:41:57;10.93;;;9.40;;
12407;SDS011;6268;48.188;17.134;2023-05-18T11:45:24;17.17;;;10.55;;
12407;SDS011;6268;48.188;17.134;2023-05-18T11:48:47;14.70;;;10.45;;
12407;SDS011;6268;48.188;17.134;2023-05-18T11:52:14;11.02;;;9.75;;
12407;SDS011;6268;48.188;17.134;2023-05-18T11:55:41;11.65;;;9.05;;
12407;SDS011;6268;48.188;17.134;2023-05-18T11:59:10;10.43;;;9.43;;
12407;SDS011;6268;48.188;17.134;2023-05-18T12:02:33;15.77;;;9.82;;
12407;SDS011;6268;48.188;17.134;2023-05-18T12:05:58;11.85;;;9.77;;
12407;SDS011;6268;48.188;17.134;2023-05-18T12:09:20;10.73;;;9.73;;
12407;SDS011;6268;48.188;17.134;2023-05-18T12:12:42;10.70;;;9.60;;
12407;SDS011;6268;48.188;17.134;2023-05-18T12:16:08;13.60;;;9.90;;
12407;SDS011;6268;48.188;17.134;2023-05-18T12:23:16;14.32;;;9.85;;
12407;SDS011;6268;48.188;17.134;2023-05-18T12:26:38;12.88;;;10.55;;
12407;SDS011;6268;48.188;17.134;2023-05-18T12:30:04;14.18;;;10.93;;
12407;SDS011;6268;48.188;17.134;2023-05-18T12:33:32;11.38;;;10.10;;
12407;SDS011;6268;48.188;17.134;2023-05-18T12:36:55;12.85;;;9.93;;
12407;SDS011;6268;48.188;17.134;2023-05-18T12:40:18;10.63;;;9.63;;
12407;SDS011;6268;48.188;17.134;2023-05-18T12:43:48;11.85;;;9.98;;
12407;SDS011;6268;48.188;17.134;2023-05-18T12:47:10;14.93;;;9.73;;
12407;SDS011;6268;48.188;17.134;2023-05-18T12:50:33;32.38;;;15.77;;
12407;SDS011;6268;48.188;17.134;2023-05-18T12:53:58;22.50;;;12.90;;
12407;SDS011;6268;48.188;17.134;2023-05-18T12:57:27;12.23;;;8.93;;
12407;SDS011;6268;48.188;17.134;2023-05-18T13:00:48;12.25;;;9.50;;
12407;SDS011;6268;48.188;17.134;2023-05-18T13:04:10;10.65;;;8.85;;
12407;SDS011;6268;48.188;17.134;2023-05-18T13:07:34;9.70;;;8.70;;
12407;SDS011;6268;48.188;17.134;2023-05-18T13:10:59;11.32;;;9.32;;
12407;SDS011;6268;48.188;17.134;2023-05-18T13:14:37;19.02;;;15.70;;
12407;SDS011;6268;48.188;17.134;2023-05-18T13:18:04;13.00;;;11.05;;
12407;SDS011;6268;48.188;17.134;2023-05-18T13:21:27;11.57;;;9.50;;
12407;SDS011;6268;48.188;17.134;2023-05-18T13:24:49;10.00;;;9.10;;
12407;SDS011;6268;48.188;17.134;2023-05-18T13:28:12;11.25;;;8.40;;
12407;SDS011;6268;48.188;17.134;2023-05-18T13:31:36;10.07;;;8.32;;
12407;SDS011;6268;48.188;17.134;2023-05-18T13:34:58;14.75;;;9.52;;
12407;SDS011;6268;48.188;17.134;2023-05-18T13:38:19;16.98;;;10.23;;
12407;SDS011;6268;48.188;17.134;2023-05-18T13:41:40;9.73;;;8.18;;
12407;SDS011;6268;48.188;17.134;2023-05-18T13:45:02;9.77;;;7.47;;
12407;SDS011;6268;48.188;17.134;2023-05-18T13:48:25;8.23;;;7.05;;
12407;SDS011;6268;48.188;17.134;2023-05-18T13:51:46;8.20;;;7.32;;
12407;SDS011;6268;48.188;17.134;2023-05-18T13:55:07;8.52;;;6.60;;
12407;SDS011;6268;48.188;17.134;2023-05-18T13:58:29;6.63;;;5.72;;
12407;SDS011;6268;48.188;17.134;2023-05-18T14:01:50;8.90;;;5.95;;
12407;SDS011;6268;48.188;17.134;2023-05-18T14:05:13;7.45;;;6.18;;
12407;SDS011;6268;48.188;17.134;2023-05-18T14:08:35;9.05;;;6.50;;
12407;SDS011;6268;48.188;17.134;2023-05-18T14:11:56;6.72;;;6.13;;
12407;SDS011;6268;48.188;17.134;2023-05-18T14:15:18;7.05;;;6.13;;
12407;SDS011;6268;48.188;17.134;2023-05-18T14:18:39;6.85;;;5.88;;
12407;SDS011;6268;48.188;17.134;2023-05-18T14:22:03;8.18;;;6.95;;
12407;SDS011;6268;48.188;17.134;2023-05-18T14:25:25;8.20;;;5.30;;
12407;SDS011;6268;48.188;17.134;2023-05-18T14:28:47;8.13;;;5.93;;
12407;SDS011;6268;48.188;17.134;2023-05-18T14:32:09;9.85;;;5.78;;
12407;SDS011;6268;48.188;17.134;2023-05-18T14:35:30;7.05;;;5.00;;
12407;SDS011;6268;48.188;17.134;2023-05-18T14:38:53;7.28;;;5.15;;
12407;SDS011;6268;48.188;17.134;2023-05-18T14:42:15;7.55;;;5.55;;
12407;SDS011;6268;48.188;17.134;2023-05-18T14:45:36;6.22;;;5.45;;
12407;SDS011;6268;48.188;17.134;2023-05-18T14:48:58;7.45;;;4.95;;
12407;SDS011;6268;48.188;17.134;2023-05-18T14:52:19;8.20;;;7.28;;
12407;SDS011;6268;48.188;17.134;2023-05-18T14:55:42;8.20;;;6.10;;
12407;SDS011;6268;48.188;17.134;2023-05-18T14:59:03;6.97;;;5.28;;
12407;SDS011;6268;48.188;17.134;2023-05-18T15:02:25;7.95;;;5.20;;
12407;SDS011;6268;48.188;17.134;2023-05-18T15:05:47;9.90;;;5.55;;
12407;SDS011;6268;48.188;17.134;2023-05-18T15:09:08;9.65;;;5.32;;
12407;SDS011;6268;48.188;17.134;2023-05-18T15:12:31;7.93;;;5.43;;
12407;SDS011;6268;48.188;17.134;2023-05-18T15:15:52;10.18;;;6.50;;
12407;SDS011;6268;48.188;17.134;2023-05-18T15:19:14;6.25;;;4.82;;
12407;SDS011;6268;48.188;17.134;2023-05-18T15:22:36;7.13;;;4.80;;
12407;SDS011;6268;48.188;17.134;2023-05-18T15:25:57;6.20;;;4.65;;
12407;SDS011;6268;48.188;17.134;2023-05-18T15:29:20;7.25;;;3.83;;
12407;SDS011;6268;48.188;17.134;2023-05-18T15:32:42;6.32;;;4.55;;
12407;SDS011;6268;48.188;17.134;2023-05-18T15:36:07;7.20;;;4.60;;
12407;SDS011;6268;48.188;17.134;2023-05-18T15:39:29;5.15;;;4.50;;
12407;SDS011;6268;48.188;17.134;2023-05-18T15:42:50;6.28;;;4.45;;
12407;SDS011;6268;48.188;17.134;2023-05-18T15:46:13;6.43;;;5.05;;
12407;SDS011;6268;48.188;17.134;2023-05-18T15:49:35;6.18;;;5.57;;
12407;SDS011;6268;48.188;17.134;2023-05-18T15:52:57;12.50;;;10.20;;
12407;SDS011;6268;48.188;17.134;2023-05-18T15:56:18;8.75;;;5.88;;
12407;SDS011;6268;48.188;17.134;2023-05-18T15:59:39;6.40;;;5.47;;
12407;SDS011;6268;48.188;17.134;2023-05-18T16:03:02;9.20;;;5.38;;
12407;SDS011;6268;48.188;17.134;2023-05-18T16:06:24;5.90;;;4.40;;
12407;SDS011;6268;48.188;17.134;2023-05-18T16:09:46;5.05;;;4.18;;
12407;SDS011;6268;48.188;17.134;2023-05-18T16:13:07;6.05;;;4.60;;
12407;SDS011;6268;48.188;17.134;2023-05-18T16:16:29;6.15;;;4.65;;
12407;SDS011;6268;48.188;17.134;2023-05-18T16:19:52;7.68;;;4.20;;
12407;SDS011;6268;48.188;17.134;2023-05-18T16:23:13;4.47;;;4.03;;
12407;SDS011;6268;48.188;17.134;2023-05-18T16:26:35;6.82;;;4.25;;
12407;SDS011;6268;48.188;17.134;2023-05-18T16:29:57;8.50;;;4.63;;
12407;SDS011;6268;48.188;17.134;2023-05-18T16:33:18;8.90;;;6.38;;
12407;SDS011;6268;48.188;17.134;2023-05-18T16:36:41;14.43;;;11.20;;
12407;SDS011;6268;48.188;17.134;2023-05-18T16:40:02;7.20;;;4.50;;
12407;SDS011;6268;48.188;17.134;2023-05-18T16:43:24;7.60;;;5.68;;
12407;SDS011;6268;48.188;17.134;2023-05-18T16:46:46;4.82;;;4.05;;
12407;SDS011;6268;48.188;17.134;2023-05-18T16:50:08;5.50;;;4.32;;
12407;SDS011;6268;48.188;17.134;2023-05-18T16:53:34;4.40;;;3.85;;
12407;SDS011;6268;48.188;17.134;2023-05-18T16:56:56;5.07;;;4.57;;
12407;SDS011;6268;48.188;17.134;2023-05-18T17:00:19;7.35;;;4.63;;
12407;SDS011;6268;48.188;17.134;2023-05-18T17:03:54;8.60;;;4.40;;
12407;SDS011;6268;48.188;17.134;2023-05-18T17:07:16;4.90;;;4.22;;
12407;SDS011;6268;48.188;17.134;2023-05-18T17:10:45;4.57;;;4.18;;
12407;SDS011;6268;48.188;17.134;2023-05-18T17:14:06;8.05;;;4.57;;
12407;SDS011;6268;48.188;17.134;2023-05-18T17:17:28;6.55;;;4.07;;
12407;SDS011;6268;48.188;17.134;2023-05-18T17:20:50;8.77;;;4.15;;
12407;SDS011;6268;48.188;17.134;2023-05-18T17:24:12;5.40;;;4.25;;
12407;SDS011;6268;48.188;17.134;2023-05-18T17:27:36;6.88;;;6.18;;
12407;SDS011;6268;48.188;17.134;2023-05-18T17:30:57;7.00;;;5.10;;
12407;SDS011;6268;48.188;17.134;2023-05-18T17:34:19;5.82;;;4.50;;
12407;SDS011;6268;48.188;17.134;2023-05-18T17:37:41;8.77;;;4.35;;
12407;SDS011;6268;48.188;17.134;2023-05-18T17:41:02;6.43;;;4.32;;
12407;SDS011;6268;48.188;17.134;2023-05-18T17:44:27;6.55;;;4.40;;
12407;SDS011;6268;48.188;17.134;2023-05-18T17:47:50;4.97;;;4.20;;
12407;SDS011;6268;48.188;17.134;2023-05-18T17:51:11;6.50;;;4.70;;
12407;SDS011;6268;48.188;17.134;2023-05-18T17:54:33;9.98;;;6.70;;
12407;SDS011;6268;48.188;17.134;2023-05-18T17:57:55;18.05;;;13.95;;
12407;SDS011;6268;48.188;17.134;2023-05-18T18:01:17;9.93;;;6.45;;
12407;SDS011;6268;48.188;17.134;2023-05-18T18:04:39;9.40;;;4.63;;
12407;SDS011;6268;48.188;17.134;2023-05-18T18:08:01;5.35;;;4.70;;
12407;SDS011;6268;48.188;17.134;2023-05-18T18:11:23;5.90;;;4.20;;
12407;SDS011;6268;48.188;17.134;2023-05-18T18:14:45;6.97;;;4.40;;
12407;SDS011;6268;48.188;17.134;2023-05-18T18:18:08;5.05;;;4.20;;
12407;SDS011;6268;48.188;17.134;2023-05-18T18:21:30;5.93;;;4.55;;
12407;SDS011;6268;48.188;17.134;2023-05-18T18:24:52;4.78;;;4.28;;
12407;SDS011;6268;48.188;17.134;2023-05-18T18:28:15;6.90;;;4.22;;
12407;SDS011;6268;48.188;17.134;2023-05-18T18:31:36;6.90;;;4.45;;
12407;SDS011;6268;48.188;17.134;2023-05-18T18:34:59;6.05;;;4.28;;
12407;SDS011;6268;48.188;17.134;2023-05-18T18:38:21;5.97;;;5.15;;
12407;SDS011;6268;48.188;17.134;2023-05-18T18:41:43;11.27;;;8.48;;
12407;SDS011;6268;48.188;17.134;2023-05-18T18:45:05;11.88;;;10.43;;
12407;SDS011;6268;48.188;17.134;2023-05-18T18:48:35;6.28;;;5.43;;
12407;SDS011;6268;48.188;17.134;2023-05-18T18:51:58;8.13;;;5.32;;
12407;SDS011;6268;48.188;17.134;2023-05-18T18:55:19;5.65;;;5.05;;
12407;SDS011;6268;48.188;17.134;2023-05-18T18:58:41;6.97;;;4.90;;
12407;SDS011;6268;48.188;17.134;2023-05-18T19:02:02;5.72;;;4.97;;
12407;SDS011;6268;48.188;17.134;2023-05-18T19:05:28;7.88;;;4.88;;
12407;SDS011;6268;48.188;17.134;2023-05-18T19:08:54;6.13;;;4.70;;
12407;SDS011;6268;48.188;17.134;2023-05-18T19:12:16;6.47;;;4.45;;
12407;SDS011;6268;48.188;17.134;2023-05-18T19:15:37;7.68;;;4.95;;
12407;SDS011;6268;48.188;17.134;2023-05-18T19:19:03;11.15;;;8.55;;
12407;SDS011;6268;48.188;17.134;2023-05-18T19:22:24;9.95;;;7.30;;
12407;SDS011;6268;48.188;17.134;2023-05-18T19:25:47;6.60;;;5.80;;
12407;SDS011;6268;48.188;17.134;2023-05-18T19:29:08;9.65;;;5.50;;
12407;SDS011;6268;48.188;17.134;2023-05-18T19:32:30;5.45;;;4.93;;
12407;SDS011;6268;48.188;17.134;2023-05-18T19:35:52;5.70;;;5.18;;
12407;SDS011;6268;48.188;17.134;2023-05-18T19:39:13;5.30;;;4.80;;
12407;SDS011;6268;48.188;17.134;2023-05-18T19:42:37;5.65;;;5.10;;
12407;SDS011;6268;48.188;17.134;2023-05-18T19:45:58;7.32;;;5.47;;
12407;SDS011;6268;48.188;17.134;2023-05-18T19:49:19;10.57;;;5.88;;
12407;SDS011;6268;48.188;17.134;2023-05-18T19:52:41;8.00;;;5.80;;
12407;SDS011;6268;48.188;17.134;2023-05-18T19:56:02;7.88;;;5.65;;
12407;SDS011;6268;48.188;17.134;2023-05-18T19:59:25;7.25;;;5.72;;
12407;SDS011;6268;48.188;17.134;2023-05-18T20:02:46;5.88;;;5.10;;
12407;SDS011;6268;48.188;17.134;2023-05-18T20:06:09;10.18;;;8.13;;
12407;SDS011;6268;48.188;17.134;2023-05-18T20:09:30;10.35;;;9.35;;
12407;SDS011;6268;48.188;17.134;2023-05-18T20:12:52;8.52;;;6.65;;
12407;SDS011;6268;48.188;17.134;2023-05-18T20:16:14;6.38;;;5.78;;
12407;SDS011;6268;48.188;17.134;2023-05-18T20:19:36;7.70;;;5.70;;
12407;SDS011;6268;48.188;17.134;2023-05-18T20:22:59;9.05;;;5.78;;
12407;SDS011;6268;48.188;17.134;2023-05-18T20:26:20;8.82;;;5.70;;
12407;SDS011;6268;48.188;17.134;2023-05-18T20:29:42;6.88;;;5.53;;
12407;SDS011;6268;48.188;17.134;2023-05-18T20:33:05;6.55;;;5.45;;